sensor_id;sensor_type;location;lat;lon;timestamp;P1;durP1;ratioP1;P2;durP2;ratioP2
50683;SDS011;36654;45.042;38.994;2023-07-29T00:02:08;3.88;;;2.53;;
50683;SDS011;36654;45.042;38.994;2023-07-29T00:04:34;3.50;;;2.03;;
50683;SDS011;36654;45.042;38.994;2023-07-29T00:06:59;6.35;;;2.53;;
50683;SDS011;36654;45.042;38.994;2023-07-29T00:09:25;5.32;;;2.22;;
50683;SDS011;36654;45.042;38.994;2023-07-29T00:11:51;5.53;;;2.17;;
50683;SDS011;36654;45.042;38.994;2023-07-29T00:14:16;3.90;;;2.22;;
50683;SDS011;36654;45.042;38.994;2023-07-29T00:16:42;5.43;;;3.05;;
50683;SDS011;36654;45.042;38.994;2023-07-29T00:19:08;2.53;;;2.30;;
50683;SDS011;36654;45.042;38.994;2023-07-29T00:21:33;6.75;;;2.67;;
50683;SDS011;36654;45.042;38.994;2023-07-29T00:23:59;3.70;;;2.08;;
50683;SDS011;36654;45.042;38.994;2023-07-29T00:26:26;4.13;;;2.10;;
50683;SDS011;36654;45.042;38.994;2023-07-29T00:28:54;6.13;;;2.28;;
50683;SDS011;36654;45.042;38.994;2023-07-29T00:31:20;3.15;;;2.30;;
50683;SDS011;36654;45.042;38.994;2023-07-29T00:33:46;7.32;;;2.47;;
50683;SDS011;36654;45.042;38.994;2023-07-29T00:36:12;5.43;;;2.70;;
50683;SDS011;36654;45.042;38.994;2023-07-29T00:38:37;5.57;;;3.20;;
50683;SDS011;36654;45.042;38.994;2023-07-29T00:41:03;3.58;;;2.30;;
50683;SDS011;36654;45.042;38.994;2023-07-29T00:43:29;6.80;;;2.38;;
50683;SDS011;36654;45.042;38.994;2023-07-29T00:45:54;5.88;;;2.40;;
50683;SDS011;36654;45.042;38.994;2023-07-29T00:48:22;3.75;;;2.53;;
50683;SDS011;36654;45.042;38.994;2023-07-29T00:50:49;5.97;;;3.28;;
50683;SDS011;36654;45.042;38.994;2023-07-29T00:53:15;8.10;;;2.83;;
50683;SDS011;36654;45.042;38.994;2023-07-29T00:55:41;5.85;;;2.33;;
50683;SDS011;36654;45.042;38.994;2023-07-29T00:58:07;5.57;;;2.40;;
50683;SDS011;36654;45.042;38.994;2023-07-29T01:00:33;4.97;;;2.38;;
50683;SDS011;36654;45.042;38.994;2023-07-29T01:02:58;4.72;;;3.20;;
50683;SDS011;36654;45.042;38.994;2023-07-29T01:05:24;6.00;;;2.53;;
50683;SDS011;36654;45.042;38.994;2023-07-29T01:08:19;10.20;;;3.17;;
50683;SDS011;36654;45.042;38.994;2023-07-29T01:13:45;6.13;;;2.63;;
50683;SDS011;36654;45.042;38.994;2023-07-29T01:16:23;7.15;;;2.97;;
50683;SDS011;36654;45.042;38.994;2023-07-29T01:18:55;4.28;;;2.20;;
50683;SDS011;36654;45.042;38.994;2023-07-29T01:21:25;6.90;;;2.70;;
50683;SDS011;36654;45.042;38.994;2023-07-29T01:23:52;7.15;;;2.58;;
50683;SDS011;36654;45.042;38.994;2023-07-29T01:26:18;6.63;;;2.50;;
50683;SDS011;36654;45.042;38.994;2023-07-29T01:28:44;4.82;;;2.42;;
50683;SDS011;36654;45.042;38.994;2023-07-29T01:31:16;6.53;;;2.80;;
50683;SDS011;36654;45.042;38.994;2023-07-29T01:33:59;4.90;;;2.63;;
50683;SDS011;36654;45.042;38.994;2023-07-29T01:36:31;8.00;;;2.50;;
50683;SDS011;36654;45.042;38.994;2023-07-29T01:38:59;7.35;;;2.63;;
50683;SDS011;36654;45.042;38.994;2023-07-29T01:41:27;6.45;;;2.85;;
50683;SDS011;36654;45.042;38.994;2023-07-29T01:43:53;4.68;;;2.83;;
50683;SDS011;36654;45.042;38.994;2023-07-29T01:46:21;3.83;;;2.88;;
50683;SDS011;36654;45.042;38.994;2023-07-29T01:48:47;5.97;;;2.60;;
50683;SDS011;36654;45.042;38.994;2023-07-29T01:51:13;7.20;;;2.70;;
50683;SDS011;36654;45.042;38.994;2023-07-29T01:53:39;7.45;;;2.67;;
50683;SDS011;36654;45.042;38.994;2023-07-29T01:56:05;4.95;;;2.35;;
50683;SDS011;36654;45.042;38.994;2023-07-29T01:58:31;3.25;;;2.50;;
50683;SDS011;36654;45.042;38.994;2023-07-29T02:00:56;6.82;;;2.30;;
50683;SDS011;36654;45.042;38.994;2023-07-29T02:03:22;4.68;;;2.05;;
50683;SDS011;36654;45.042;38.994;2023-07-29T02:05:47;4.45;;;3.13;;
50683;SDS011;36654;45.042;38.994;2023-07-29T02:08:13;5.05;;;2.90;;
50683;SDS011;36654;45.042;38.994;2023-07-29T02:10:39;3.67;;;2.35;;
50683;SDS011;36654;45.042;38.994;2023-07-29T02:13:04;2.72;;;2.35;;
50683;SDS011;36654;45.042;38.994;2023-07-29T02:15:30;4.57;;;2.47;;
50683;SDS011;36654;45.042;38.994;2023-07-29T02:17:55;7.25;;;2.67;;
50683;SDS011;36654;45.042;38.994;2023-07-29T02:20:21;4.93;;;3.00;;
50683;SDS011;36654;45.042;38.994;2023-07-29T02:22:47;4.80;;;2.50;;
50683;SDS011;36654;45.042;38.994;2023-07-29T02:25:13;5.28;;;2.55;;
50683;SDS011;36654;45.042;38.994;2023-07-29T02:27:39;4.55;;;2.30;;
50683;SDS011;36654;45.042;38.994;2023-07-29T02:30:05;5.00;;;2.50;;
50683;SDS011;36654;45.042;38.994;2023-07-29T02:32:32;8.52;;;3.00;;
50683;SDS011;36654;45.042;38.994;2023-07-29T02:34:58;3.22;;;2.40;;
50683;SDS011;36654;45.042;38.994;2023-07-29T02:37:23;4.15;;;2.50;;
50683;SDS011;36654;45.042;38.994;2023-07-29T02:39:49;5.93;;;2.50;;
50683;SDS011;36654;45.042;38.994;2023-07-29T02:42:14;6.43;;;3.10;;
50683;SDS011;36654;45.042;38.994;2023-07-29T02:44:40;5.22;;;2.40;;
50683;SDS011;36654;45.042;38.994;2023-07-29T02:47:06;4.80;;;2.70;;
50683;SDS011;36654;45.042;38.994;2023-07-29T02:49:32;4.03;;;2.40;;
50683;SDS011;36654;45.042;38.994;2023-07-29T02:51:57;11.38;;;3.05;;
50683;SDS011;36654;45.042;38.994;2023-07-29T02:54:23;7.90;;;2.75;;
50683;SDS011;36654;45.042;38.994;2023-07-29T02:56:49;5.35;;;2.65;;
50683;SDS011;36654;45.042;38.994;2023-07-29T02:59:15;8.73;;;3.13;;
50683;SDS011;36654;45.042;38.994;2023-07-29T03:01:41;4.88;;;2.60;;
50683;SDS011;36654;45.042;38.994;2023-07-29T03:04:07;5.78;;;2.28;;
50683;SDS011;36654;45.042;38.994;2023-07-29T03:06:33;3.53;;;2.80;;
50683;SDS011;36654;45.042;38.994;2023-07-29T03:08:58;4.35;;;2.40;;
50683;SDS011;36654;45.042;38.994;2023-07-29T03:11:24;5.75;;;3.17;;
50683;SDS011;36654;45.042;38.994;2023-07-29T03:13:50;3.22;;;2.50;;
50683;SDS011;36654;45.042;38.994;2023-07-29T03:16:16;4.25;;;2.25;;
50683;SDS011;36654;45.042;38.994;2023-07-29T03:18:43;7.75;;;2.85;;
50683;SDS011;36654;45.042;38.994;2023-07-29T03:21:09;4.82;;;2.35;;
50683;SDS011;36654;45.042;38.994;2023-07-29T03:23:36;7.22;;;2.60;;
50683;SDS011;36654;45.042;38.994;2023-07-29T03:26:03;3.13;;;2.45;;
50683;SDS011;36654;45.042;38.994;2023-07-29T03:28:34;7.53;;;2.80;;
50683;SDS011;36654;45.042;38.994;2023-07-29T03:31:02;5.45;;;2.75;;
50683;SDS011;36654;45.042;38.994;2023-07-29T03:33:28;5.50;;;2.75;;
50683;SDS011;36654;45.042;38.994;2023-07-29T03:35:54;7.63;;;2.95;;
50683;SDS011;36654;45.042;38.994;2023-07-29T03:38:19;4.90;;;2.40;;
50683;SDS011;36654;45.042;38.994;2023-07-29T03:40:45;7.15;;;2.83;;
50683;SDS011;36654;45.042;38.994;2023-07-29T03:43:11;10.00;;;3.13;;
50683;SDS011;36654;45.042;38.994;2023-07-29T03:45:36;6.53;;;2.90;;
50683;SDS011;36654;45.042;38.994;2023-07-29T03:48:03;4.97;;;2.88;;
50683;SDS011;36654;45.042;38.994;2023-07-29T03:50:29;4.30;;;2.63;;
50683;SDS011;36654;45.042;38.994;2023-07-29T03:52:55;3.72;;;2.80;;
50683;SDS011;36654;45.042;38.994;2023-07-29T03:55:22;4.68;;;2.97;;
50683;SDS011;36654;45.042;38.994;2023-07-29T03:57:48;5.45;;;2.83;;
50683;SDS011;36654;45.042;38.994;2023-07-29T04:00:13;5.32;;;3.10;;
50683;SDS011;36654;45.042;38.994;2023-07-29T04:02:39;4.32;;;2.60;;
50683;SDS011;36654;45.042;38.994;2023-07-29T04:05:06;9.02;;;3.22;;
50683;SDS011;36654;45.042;38.994;2023-07-29T04:07:36;7.75;;;3.45;;
50683;SDS011;36654;45.042;38.994;2023-07-29T04:10:02;4.88;;;2.50;;
50683;SDS011;36654;45.042;38.994;2023-07-29T04:12:28;7.55;;;3.00;;
50683;SDS011;36654;45.042;38.994;2023-07-29T04:14:54;3.63;;;2.88;;
50683;SDS011;36654;45.042;38.994;2023-07-29T04:17:20;3.88;;;3.22;;
50683;SDS011;36654;45.042;38.994;2023-07-29T04:19:45;5.15;;;3.00;;
50683;SDS011;36654;45.042;38.994;2023-07-29T04:22:11;6.43;;;3.10;;
50683;SDS011;36654;45.042;38.994;2023-07-29T04:24:37;4.95;;;2.92;;
50683;SDS011;36654;45.042;38.994;2023-07-29T04:27:03;6.90;;;3.05;;
50683;SDS011;36654;45.042;38.994;2023-07-29T04:29:29;4.72;;;3.50;;
50683;SDS011;36654;45.042;38.994;2023-07-29T04:31:55;7.82;;;3.47;;
50683;SDS011;36654;45.042;38.994;2023-07-29T04:34:20;6.45;;;3.28;;
50683;SDS011;36654;45.042;38.994;2023-07-29T04:36:46;4.57;;;2.72;;
50683;SDS011;36654;45.042;38.994;2023-07-29T04:39:12;5.78;;;2.95;;
50683;SDS011;36654;45.042;38.994;2023-07-29T04:41:38;6.22;;;2.80;;
50683;SDS011;36654;45.042;38.994;2023-07-29T04:44:03;6.70;;;3.05;;
50683;SDS011;36654;45.042;38.994;2023-07-29T04:46:29;4.28;;;2.67;;
50683;SDS011;36654;45.042;38.994;2023-07-29T04:48:55;6.20;;;2.83;;
50683;SDS011;36654;45.042;38.994;2023-07-29T04:51:21;5.72;;;2.90;;
50683;SDS011;36654;45.042;38.994;2023-07-29T04:53:47;4.28;;;2.95;;
50683;SDS011;36654;45.042;38.994;2023-07-29T04:56:12;3.10;;;2.50;;
50683;SDS011;36654;45.042;38.994;2023-07-29T04:58:38;4.20;;;2.50;;
50683;SDS011;36654;45.042;38.994;2023-07-29T05:01:04;6.38;;;2.10;;
50683;SDS011;36654;45.042;38.994;2023-07-29T05:03:30;4.00;;;2.88;;
50683;SDS011;36654;45.042;38.994;2023-07-29T05:05:55;8.50;;;3.33;;
50683;SDS011;36654;45.042;38.994;2023-07-29T05:08:22;4.88;;;2.80;;
50683;SDS011;36654;45.042;38.994;2023-07-29T05:10:51;9.60;;;2.83;;
50683;SDS011;36654;45.042;38.994;2023-07-29T05:13:17;2.88;;;2.15;;
50683;SDS011;36654;45.042;38.994;2023-07-29T05:15:44;5.90;;;2.42;;
50683;SDS011;36654;45.042;38.994;2023-07-29T05:18:10;3.95;;;2.40;;
50683;SDS011;36654;45.042;38.994;2023-07-29T05:20:36;5.20;;;2.33;;
50683;SDS011;36654;45.042;38.994;2023-07-29T05:23:02;4.78;;;2.40;;
50683;SDS011;36654;45.042;38.994;2023-07-29T05:25:28;7.57;;;3.08;;
50683;SDS011;36654;45.042;38.994;2023-07-29T05:27:54;5.43;;;2.30;;
50683;SDS011;36654;45.042;38.994;2023-07-29T05:30:19;3.20;;;2.80;;
50683;SDS011;36654;45.042;38.994;2023-07-29T05:32:46;5.28;;;2.10;;
50683;SDS011;36654;45.042;38.994;2023-07-29T05:35:12;3.22;;;2.08;;
50683;SDS011;36654;45.042;38.994;2023-07-29T05:37:38;2.95;;;2.10;;
50683;SDS011;36654;45.042;38.994;2023-07-29T05:40:07;5.25;;;2.10;;
50683;SDS011;36654;45.042;38.994;2023-07-29T05:42:34;4.15;;;2.38;;
50683;SDS011;36654;45.042;38.994;2023-07-29T05:45:00;4.30;;;2.30;;
50683;SDS011;36654;45.042;38.994;2023-07-29T05:47:26;4.35;;;2.15;;
50683;SDS011;36654;45.042;38.994;2023-07-29T05:49:52;2.95;;;2.00;;
50683;SDS011;36654;45.042;38.994;2023-07-29T05:52:17;4.50;;;2.13;;
50683;SDS011;36654;45.042;38.994;2023-07-29T05:54:43;3.65;;;2.25;;
50683;SDS011;36654;45.042;38.994;2023-07-29T05:57:10;3.15;;;2.00;;
50683;SDS011;36654;45.042;38.994;2023-07-29T05:59:36;4.00;;;1.98;;
50683;SDS011;36654;45.042;38.994;2023-07-29T06:02:02;3.45;;;1.88;;
50683;SDS011;36654;45.042;38.994;2023-07-29T06:04:28;3.17;;;2.35;;
50683;SDS011;36654;45.042;38.994;2023-07-29T06:06:53;3.78;;;2.00;;
50683;SDS011;36654;45.042;38.994;2023-07-29T06:09:20;1.90;;;1.80;;
50683;SDS011;36654;45.042;38.994;2023-07-29T06:11:50;5.07;;;1.88;;
50683;SDS011;36654;45.042;38.994;2023-07-29T06:14:16;4.13;;;1.92;;
50683;SDS011;36654;45.042;38.994;2023-07-29T06:16:42;1.98;;;1.88;;
50683;SDS011;36654;45.042;38.994;2023-07-29T06:19:07;4.13;;;1.98;;
50683;SDS011;36654;45.042;38.994;2023-07-29T06:21:34;3.80;;;2.03;;
50683;SDS011;36654;45.042;38.994;2023-07-29T06:24:00;3.92;;;1.67;;
50683;SDS011;36654;45.042;38.994;2023-07-29T06:26:26;5.20;;;2.05;;
50683;SDS011;36654;45.042;38.994;2023-07-29T06:28:52;4.00;;;1.70;;
50683;SDS011;36654;45.042;38.994;2023-07-29T06:31:17;3.40;;;2.10;;
50683;SDS011;36654;45.042;38.994;2023-07-29T06:33:43;4.75;;;2.03;;
50683;SDS011;36654;45.042;38.994;2023-07-29T06:36:09;3.33;;;1.92;;
50683;SDS011;36654;45.042;38.994;2023-07-29T06:38:34;5.72;;;1.75;;
50683;SDS011;36654;45.042;38.994;2023-07-29T06:41:00;2.90;;;1.98;;
50683;SDS011;36654;45.042;38.994;2023-07-29T06:43:25;3.47;;;1.90;;
50683;SDS011;36654;45.042;38.994;2023-07-29T06:45:51;2.20;;;2.00;;
50683;SDS011;36654;45.042;38.994;2023-07-29T06:48:17;2.97;;;2.05;;
50683;SDS011;36654;45.042;38.994;2023-07-29T06:50:44;3.78;;;1.80;;
50683;SDS011;36654;45.042;38.994;2023-07-29T06:53:09;2.20;;;1.60;;
50683;SDS011;36654;45.042;38.994;2023-07-29T06:55:35;2.80;;;1.98;;
50683;SDS011;36654;45.042;38.994;2023-07-29T06:58:01;2.72;;;1.77;;
50683;SDS011;36654;45.042;38.994;2023-07-29T07:00:27;3.70;;;1.80;;
50683;SDS011;36654;45.042;38.994;2023-07-29T07:02:52;2.72;;;1.92;;
50683;SDS011;36654;45.042;38.994;2023-07-29T07:05:18;6.72;;;1.75;;
50683;SDS011;36654;45.042;38.994;2023-07-29T07:07:44;3.85;;;1.88;;
50683;SDS011;36654;45.042;38.994;2023-07-29T07:10:10;2.42;;;1.52;;
50683;SDS011;36654;45.042;38.994;2023-07-29T07:12:35;2.10;;;1.70;;
50683;SDS011;36654;45.042;38.994;2023-07-29T07:15:01;2.53;;;1.85;;
50683;SDS011;36654;45.042;38.994;2023-07-29T07:17:27;1.75;;;1.52;;
50683;SDS011;36654;45.042;38.994;2023-07-29T07:19:53;2.10;;;1.90;;
50683;SDS011;36654;45.042;38.994;2023-07-29T07:22:19;5.20;;;1.90;;
50683;SDS011;36654;45.042;38.994;2023-07-29T07:24:44;1.63;;;1.48;;
50683;SDS011;36654;45.042;38.994;2023-07-29T07:27:10;3.70;;;1.90;;
50683;SDS011;36654;45.042;38.994;2023-07-29T07:29:36;6.00;;;2.20;;
50683;SDS011;36654;45.042;38.994;2023-07-29T07:32:01;2.17;;;1.83;;
50683;SDS011;36654;45.042;38.994;2023-07-29T07:34:27;6.72;;;2.33;;
50683;SDS011;36654;45.042;38.994;2023-07-29T07:36:53;3.72;;;1.80;;
50683;SDS011;36654;45.042;38.994;2023-07-29T07:39:18;3.72;;;2.25;;
50683;SDS011;36654;45.042;38.994;2023-07-29T07:41:44;2.40;;;1.80;;
50683;SDS011;36654;45.042;38.994;2023-07-29T07:44:10;4.95;;;2.05;;
50683;SDS011;36654;45.042;38.994;2023-07-29T07:46:37;3.90;;;2.05;;
50683;SDS011;36654;45.042;38.994;2023-07-29T07:49:03;2.72;;;1.77;;
50683;SDS011;36654;45.042;38.994;2023-07-29T07:51:29;2.72;;;1.50;;
50683;SDS011;36654;45.042;38.994;2023-07-29T07:53:55;4.30;;;2.00;;
50683;SDS011;36654;45.042;38.994;2023-07-29T07:56:20;2.13;;;1.63;;
50683;SDS011;36654;45.042;38.994;2023-07-29T07:58:46;4.00;;;1.95;;
50683;SDS011;36654;45.042;38.994;2023-07-29T08:01:11;3.13;;;1.90;;
50683;SDS011;36654;45.042;38.994;2023-07-29T08:03:37;2.63;;;1.75;;
50683;SDS011;36654;45.042;38.994;2023-07-29T08:06:04;1.80;;;1.67;;
50683;SDS011;36654;45.042;38.994;2023-07-29T08:08:29;4.85;;;1.98;;
50683;SDS011;36654;45.042;38.994;2023-07-29T08:10:56;3.53;;;2.30;;
50683;SDS011;36654;45.042;38.994;2023-07-29T08:13:22;2.55;;;1.90;;
50683;SDS011;36654;45.042;38.994;2023-07-29T08:15:50;6.70;;;2.70;;
50683;SDS011;36654;45.042;38.994;2023-07-29T08:20:55;3.92;;;2.00;;
50683;SDS011;36654;45.042;38.994;2023-07-29T08:23:33;2.10;;;1.90;;
50683;SDS011;36654;45.042;38.994;2023-07-29T08:26:01;5.93;;;3.63;;
50683;SDS011;36654;45.042;38.994;2023-07-29T08:28:37;7.88;;;3.90;;
50683;SDS011;36654;45.042;38.994;2023-07-29T08:31:04;3.22;;;2.13;;
50683;SDS011;36654;45.042;38.994;2023-07-29T08:33:31;3.97;;;2.92;;
50683;SDS011;36654;45.042;38.994;2023-07-29T08:36:01;4.80;;;3.03;;
50683;SDS011;36654;45.042;38.994;2023-07-29T08:38:27;4.07;;;2.70;;
50683;SDS011;36654;45.042;38.994;2023-07-29T08:46:18;3.78;;;2.83;;
50683;SDS011;36654;45.042;38.994;2023-07-29T08:48:45;4.80;;;2.33;;
50683;SDS011;36654;45.042;38.994;2023-07-29T08:51:11;3.72;;;2.03;;
50683;SDS011;36654;45.042;38.994;2023-07-29T08:53:38;7.18;;;2.17;;
50683;SDS011;36654;45.042;38.994;2023-07-29T08:56:05;5.15;;;2.58;;
50683;SDS011;36654;45.042;38.994;2023-07-29T08:58:32;5.15;;;1.80;;
50683;SDS011;36654;45.042;38.994;2023-07-29T09:00:58;3.60;;;2.05;;
50683;SDS011;36654;45.042;38.994;2023-07-29T09:03:24;4.22;;;2.20;;
50683;SDS011;36654;45.042;38.994;2023-07-29T09:05:49;4.45;;;2.30;;
50683;SDS011;36654;45.042;38.994;2023-07-29T09:08:16;2.80;;;1.92;;
50683;SDS011;36654;45.042;38.994;2023-07-29T09:10:42;5.15;;;2.17;;
50683;SDS011;36654;45.042;38.994;2023-07-29T09:13:08;2.55;;;1.80;;
50683;SDS011;36654;45.042;38.994;2023-07-29T09:15:35;4.80;;;2.30;;
50683;SDS011;36654;45.042;38.994;2023-07-29T09:18:11;2.60;;;1.80;;
50683;SDS011;36654;45.042;38.994;2023-07-29T09:20:39;4.25;;;1.70;;
50683;SDS011;36654;45.042;38.994;2023-07-29T09:23:07;3.13;;;1.95;;
50683;SDS011;36654;45.042;38.994;2023-07-29T09:25:35;3.13;;;2.25;;
50683;SDS011;36654;45.042;38.994;2023-07-29T09:28:07;3.30;;;2.13;;
50683;SDS011;36654;45.042;38.994;2023-07-29T09:30:37;2.50;;;2.08;;
50683;SDS011;36654;45.042;38.994;2023-07-29T09:33:04;3.80;;;2.10;;
50683;SDS011;36654;45.042;38.994;2023-07-29T09:35:30;5.25;;;2.10;;
50683;SDS011;36654;45.042;38.994;2023-07-29T09:37:58;4.15;;;2.08;;
50683;SDS011;36654;45.042;38.994;2023-07-29T09:40:24;2.55;;;2.00;;
50683;SDS011;36654;45.042;38.994;2023-07-29T09:42:53;5.43;;;2.88;;
50683;SDS011;36654;45.042;38.994;2023-07-29T09:45:20;3.15;;;2.42;;
50683;SDS011;36654;45.042;38.994;2023-07-29T09:47:46;5.60;;;2.53;;
50683;SDS011;36654;45.042;38.994;2023-07-29T09:50:12;1.73;;;1.63;;
50683;SDS011;36654;45.042;38.994;2023-07-29T09:52:38;5.63;;;1.95;;
50683;SDS011;36654;45.042;38.994;2023-07-29T09:55:04;6.40;;;2.00;;
50683;SDS011;36654;45.042;38.994;2023-07-29T09:57:31;1.88;;;1.77;;
50683;SDS011;36654;45.042;38.994;2023-07-29T09:59:57;3.38;;;1.70;;
50683;SDS011;36654;45.042;38.994;2023-07-29T10:02:23;3.75;;;1.98;;
50683;SDS011;36654;45.042;38.994;2023-07-29T10:04:51;3.15;;;2.10;;
50683;SDS011;36654;45.042;38.994;2023-07-29T10:07:17;3.28;;;2.13;;
50683;SDS011;36654;45.042;38.994;2023-07-29T10:09:44;6.78;;;1.65;;
50683;SDS011;36654;45.042;38.994;2023-07-29T10:12:11;2.35;;;2.10;;
50683;SDS011;36654;45.042;38.994;2023-07-29T10:14:37;3.67;;;1.90;;
50683;SDS011;36654;45.042;38.994;2023-07-29T10:17:04;4.13;;;1.80;;
50683;SDS011;36654;45.042;38.994;2023-07-29T10:19:30;2.53;;;1.90;;
50683;SDS011;36654;45.042;38.994;2023-07-29T10:21:58;3.33;;;1.75;;
50683;SDS011;36654;45.042;38.994;2023-07-29T10:24:32;6.30;;;2.28;;
50683;SDS011;36654;45.042;38.994;2023-07-29T10:26:59;3.50;;;2.45;;
50683;SDS011;36654;45.042;38.994;2023-07-29T10:29:32;2.90;;;2.35;;
50683;SDS011;36654;45.042;38.994;2023-07-29T10:32:04;2.33;;;1.90;;
50683;SDS011;36654;45.042;38.994;2023-07-29T10:34:31;2.42;;;2.22;;
50683;SDS011;36654;45.042;38.994;2023-07-29T10:37:00;2.58;;;2.00;;
50683;SDS011;36654;45.042;38.994;2023-07-29T10:39:26;3.17;;;1.95;;
50683;SDS011;36654;45.042;38.994;2023-07-29T10:47:11;7.15;;;2.08;;
50683;SDS011;36654;45.042;38.994;2023-07-29T10:49:44;2.95;;;2.20;;
50683;SDS011;36654;45.042;38.994;2023-07-29T10:52:14;2.58;;;1.90;;
50683;SDS011;36654;45.042;38.994;2023-07-29T10:54:44;4.68;;;2.00;;
50683;SDS011;36654;45.042;38.994;2023-07-29T10:57:13;2.10;;;1.90;;
50683;SDS011;36654;45.042;38.994;2023-07-29T11:02:46;3.53;;;2.13;;
50683;SDS011;36654;45.042;38.994;2023-07-29T11:05:24;6.88;;;2.50;;
50683;SDS011;36654;45.042;38.994;2023-07-29T11:07:50;2.95;;;1.60;;
50683;SDS011;36654;45.042;38.994;2023-07-29T11:10:16;4.80;;;2.05;;
50683;SDS011;36654;45.042;38.994;2023-07-29T11:15:21;4.07;;;2.17;;
50683;SDS011;36654;45.042;38.994;2023-07-29T11:17:58;3.33;;;2.17;;
50683;SDS011;36654;45.042;38.994;2023-07-29T11:20:26;7.15;;;2.10;;
50683;SDS011;36654;45.042;38.994;2023-07-29T11:22:59;2.58;;;1.88;;
50683;SDS011;36654;45.042;38.994;2023-07-29T11:25:26;2.88;;;2.33;;
50683;SDS011;36654;45.042;38.994;2023-07-29T11:27:54;3.28;;;2.22;;
50683;SDS011;36654;45.042;38.994;2023-07-29T11:30:21;3.83;;;2.08;;
50683;SDS011;36654;45.042;38.994;2023-07-29T11:32:54;4.40;;;2.30;;
50683;SDS011;36654;45.042;38.994;2023-07-29T11:35:21;2.47;;;2.28;;
50683;SDS011;36654;45.042;38.994;2023-07-29T11:37:48;3.63;;;2.10;;
50683;SDS011;36654;45.042;38.994;2023-07-29T11:40:19;5.63;;;2.63;;
50683;SDS011;36654;45.042;38.994;2023-07-29T11:42:46;4.20;;;2.45;;
50683;SDS011;36654;45.042;38.994;2023-07-29T11:45:13;2.65;;;2.45;;
50683;SDS011;36654;45.042;38.994;2023-07-29T11:47:39;4.88;;;2.10;;
50683;SDS011;36654;45.042;38.994;2023-07-29T11:50:07;4.45;;;1.65;;
50683;SDS011;36654;45.042;38.994;2023-07-29T11:52:42;3.15;;;2.10;;
50683;SDS011;36654;45.042;38.994;2023-07-29T11:55:09;2.95;;;1.77;;
50683;SDS011;36654;45.042;38.994;2023-07-29T11:57:37;2.47;;;1.60;;
50683;SDS011;36654;45.042;38.994;2023-07-29T12:00:05;6.22;;;1.95;;
50683;SDS011;36654;45.042;38.994;2023-07-29T12:02:36;3.92;;;2.22;;
50683;SDS011;36654;45.042;38.994;2023-07-29T12:07:29;2.67;;;2.25;;
50683;SDS011;36654;45.042;38.994;2023-07-29T12:09:55;4.78;;;2.17;;
50683;SDS011;36654;45.042;38.994;2023-07-29T12:12:22;3.33;;;2.17;;
50683;SDS011;36654;45.042;38.994;2023-07-29T12:14:48;4.50;;;2.90;;
50683;SDS011;36654;45.042;38.994;2023-07-29T12:17:14;5.38;;;2.15;;
50683;SDS011;36654;45.042;38.994;2023-07-29T12:19:40;4.20;;;2.45;;
50683;SDS011;36654;45.042;38.994;2023-07-29T12:22:07;3.53;;;2.60;;
50683;SDS011;36654;45.042;38.994;2023-07-29T12:24:38;2.92;;;2.05;;
50683;SDS011;36654;45.042;38.994;2023-07-29T12:27:04;3.50;;;1.90;;
50683;SDS011;36654;45.042;38.994;2023-07-29T12:29:39;4.63;;;2.50;;
50683;SDS011;36654;45.042;38.994;2023-07-29T12:32:06;7.30;;;2.42;;
50683;SDS011;36654;45.042;38.994;2023-07-29T12:34:31;5.15;;;2.47;;
50683;SDS011;36654;45.042;38.994;2023-07-29T12:36:58;3.35;;;2.42;;
50683;SDS011;36654;45.042;38.994;2023-07-29T12:39:28;2.08;;;1.90;;
50683;SDS011;36654;45.042;38.994;2023-07-29T12:41:56;2.45;;;2.20;;
50683;SDS011;36654;45.042;38.994;2023-07-29T12:44:23;2.60;;;2.40;;
50683;SDS011;36654;45.042;38.994;2023-07-29T12:46:50;6.22;;;2.80;;
50683;SDS011;36654;45.042;38.994;2023-07-29T12:49:16;4.72;;;2.40;;
50683;SDS011;36654;45.042;38.994;2023-07-29T12:51:42;3.22;;;2.08;;
50683;SDS011;36654;45.042;38.994;2023-07-29T12:54:08;3.53;;;2.22;;
50683;SDS011;36654;45.042;38.994;2023-07-29T12:56:34;4.47;;;2.15;;
50683;SDS011;36654;45.042;38.994;2023-07-29T12:59:00;4.50;;;2.00;;
50683;SDS011;36654;45.042;38.994;2023-07-29T13:01:27;3.65;;;2.15;;
50683;SDS011;36654;45.042;38.994;2023-07-29T13:03:53;2.78;;;2.30;;
50683;SDS011;36654;45.042;38.994;2023-07-29T13:06:19;6.32;;;2.15;;
50683;SDS011;36654;45.042;38.994;2023-07-29T13:08:45;5.50;;;2.20;;
50683;SDS011;36654;45.042;38.994;2023-07-29T13:11:12;2.95;;;1.65;;
50683;SDS011;36654;45.042;38.994;2023-07-29T13:13:37;3.67;;;1.77;;
50683;SDS011;36654;45.042;38.994;2023-07-29T13:16:03;4.78;;;1.73;;
50683;SDS011;36654;45.042;38.994;2023-07-29T13:18:29;3.83;;;2.50;;
50683;SDS011;36654;45.042;38.994;2023-07-29T13:20:55;2.40;;;2.10;;
50683;SDS011;36654;45.042;38.994;2023-07-29T13:23:20;4.60;;;2.17;;
50683;SDS011;36654;45.042;38.994;2023-07-29T13:25:46;2.67;;;2.35;;
50683;SDS011;36654;45.042;38.994;2023-07-29T13:28:12;4.25;;;2.10;;
50683;SDS011;36654;45.042;38.994;2023-07-29T13:30:39;5.13;;;2.50;;
50683;SDS011;36654;45.042;38.994;2023-07-29T13:33:05;3.78;;;2.00;;
50683;SDS011;36654;45.042;38.994;2023-07-29T13:35:31;4.47;;;2.20;;
50683;SDS011;36654;45.042;38.994;2023-07-29T13:37:57;4.35;;;1.70;;
50683;SDS011;36654;45.042;38.994;2023-07-29T13:40:22;4.78;;;2.58;;
50683;SDS011;36654;45.042;38.994;2023-07-29T13:42:48;6.28;;;2.55;;
50683;SDS011;36654;45.042;38.994;2023-07-29T13:45:14;2.58;;;2.38;;
50683;SDS011;36654;45.042;38.994;2023-07-29T13:47:39;5.05;;;2.30;;
50683;SDS011;36654;45.042;38.994;2023-07-29T13:50:05;3.33;;;1.92;;
50683;SDS011;36654;45.042;38.994;2023-07-29T13:52:33;5.15;;;2.05;;
50683;SDS011;36654;45.042;38.994;2023-07-29T13:54:59;3.35;;;2.13;;
50683;SDS011;36654;45.042;38.994;2023-07-29T13:57:25;5.22;;;2.38;;
50683;SDS011;36654;45.042;38.994;2023-07-29T13:59:50;6.43;;;2.00;;
50683;SDS011;36654;45.042;38.994;2023-07-29T14:02:16;4.50;;;2.28;;
50683;SDS011;36654;45.042;38.994;2023-07-29T14:04:41;5.78;;;2.63;;
50683;SDS011;36654;45.042;38.994;2023-07-29T14:07:07;7.07;;;2.30;;
50683;SDS011;36654;45.042;38.994;2023-07-29T14:09:33;5.22;;;2.08;;
50683;SDS011;36654;45.042;38.994;2023-07-29T14:11:58;3.55;;;2.22;;
50683;SDS011;36654;45.042;38.994;2023-07-29T14:14:24;5.90;;;2.28;;
50683;SDS011;36654;45.042;38.994;2023-07-29T14:16:50;4.38;;;2.10;;
50683;SDS011;36654;45.042;38.994;2023-07-29T14:19:15;5.20;;;2.45;;
50683;SDS011;36654;45.042;38.994;2023-07-29T14:21:41;5.55;;;2.38;;
50683;SDS011;36654;45.042;38.994;2023-07-29T14:24:07;7.32;;;2.30;;
50683;SDS011;36654;45.042;38.994;2023-07-29T14:26:32;5.15;;;2.33;;
50683;SDS011;36654;45.042;38.994;2023-07-29T14:28:58;7.07;;;2.55;;
50683;SDS011;36654;45.042;38.994;2023-07-29T14:31:23;5.10;;;2.30;;
50683;SDS011;36654;45.042;38.994;2023-07-29T14:33:49;3.35;;;2.30;;
50683;SDS011;36654;45.042;38.994;2023-07-29T14:36:15;4.70;;;2.35;;
50683;SDS011;36654;45.042;38.994;2023-07-29T14:38:41;2.40;;;2.20;;
50683;SDS011;36654;45.042;38.994;2023-07-29T14:41:07;4.15;;;2.10;;
50683;SDS011;36654;45.042;38.994;2023-07-29T14:43:33;3.67;;;2.50;;
50683;SDS011;36654;45.042;38.994;2023-07-29T14:45:59;5.63;;;1.98;;
50683;SDS011;36654;45.042;38.994;2023-07-29T14:48:25;4.30;;;2.55;;
50683;SDS011;36654;45.042;38.994;2023-07-29T14:50:51;4.43;;;2.47;;
50683;SDS011;36654;45.042;38.994;2023-07-29T14:53:17;3.97;;;2.15;;
50683;SDS011;36654;45.042;38.994;2023-07-29T14:55:42;4.35;;;2.40;;